»·PEaware :: N512TN KTEX-KDRO

N512TN :: KTEX-KDRO

FLIGHT INFORMATION

Flight Status: Arrived
Operator: Privately registered:
United States
More flights under this callsign
Pilot: Steven M. (455)
Aircraft: CIRRUS SR-22
(SR22)
More flights by this aircraft type
Origin: KTEX Telluride Regl
United States
Destination: KDRO Durango-La Plata Co
United States
More flights between these airports :: More routes between these airports
Route: ETL V382 DRO
File this flight plan on PilotEdge
Remarks:
Altitude:
(Current/Filed)
17,000ft
Speed:
(Current/Filed)
197kts
Departed: 18-Nov-21 05:36 PM
Arrived: 18-Nov-21 06:12 PM
Distance/Time
Traveled:
49nm/0:35
Distance/Time
To Go:
Arrived

Flight Plot

Page will automatically refresh every two minutes.

Flight plan parsing failed; only flown route is shown


Map Options




Map Legend


Flown Route
Filed Route
Departure Airport
Arrival Airport
Navaid (VOR, NDB)
Fix

Horizontal Profiles

Position Reports

Time Latitude Longitude Heading Altitude Ground
Speed
18-Nov-21 17:20 37.953895 -107.902750 105 9070ft 0kts
18-Nov-21 17:21 37.953895 -107.902750 105 9070ft 0kts
18-Nov-21 17:22 37.953895 -107.902750 105 9070ft 0kts
18-Nov-21 17:23 37.953895 -107.902750 105 9070ft 0kts
18-Nov-21 17:24 37.953895 -107.902750 105 9070ft 0kts
18-Nov-21 17:25 37.953895 -107.902750 105 9070ft 0kts
18-Nov-21 17:26 37.953895 -107.902750 105 9070ft 0kts
18-Nov-21 17:27 37.953895 -107.902750 105 9070ft 0kts
18-Nov-21 17:28 37.953895 -107.902750 105 9070ft 0kts
18-Nov-21 17:29 37.953895 -107.902750 105 9070ft 0kts
18-Nov-21 17:30 37.953657 -107.902303 98 9070ft 5kts
18-Nov-21 17:31 37.952957 -107.899415 103 9070ft 12kts
18-Nov-21 17:32 37.952494 -107.896981 157 9070ft 0kts
18-Nov-21 17:33 37.952494 -107.896981 157 9070ft 0kts
18-Nov-21 17:34 37.952331 -107.896767 145 9070ft 0kts
18-Nov-21 17:35 37.951857 -107.899619 284 9070ft 60kts
18-Nov-21 17:36 37.958182 -107.938279 280 10043ft 141kts
18-Nov-21 17:37 37.968730 -107.982917 280 11935ft 126kts
18-Nov-21 17:38 37.979548 -108.024747 280 13598ft 125kts
18-Nov-21 17:39 37.990315 -108.066331 281 15158ft 125kts
18-Nov-21 17:40 38.001149 -108.108237 282 16566ft 127kts
18-Nov-21 17:41 38.013491 -108.155691 284 17009ft 161kts
18-Nov-21 17:42 38.022286 -108.211438 250 17001ft 165kts
18-Nov-21 17:43 37.979124 -108.223143 162 17001ft 203kts
18-Nov-21 17:44 37.927757 -108.193199 162 16994ft 203kts
18-Nov-21 17:45 37.876434 -108.163477 162 16990ft 203kts
18-Nov-21 17:46 37.825151 -108.133827 162 16991ft 203kts
18-Nov-21 17:47 37.773862 -108.104219 162 16995ft 203kts
18-Nov-21 17:48 37.722530 -108.074635 162 16998ft 203kts
18-Nov-21 17:49 37.671198 -108.045095 162 16998ft 203kts
18-Nov-21 17:50 37.619892 -108.015597 162 17035ft 202kts
18-Nov-21 17:51 37.568630 -107.986217 162 17009ft 203kts
18-Nov-21 17:52 37.517130 -107.956702 162 17006ft 202kts
18-Nov-21 17:53 37.465918 -107.927408 162 17009ft 202kts
18-Nov-21 17:54 37.414627 -107.898113 162 17006ft 202kts
18-Nov-21 17:55 37.363035 -107.868723 162 16898ft 207kts
18-Nov-21 17:56 37.309513 -107.838333 161 16421ft 213kts
18-Nov-21 17:57 37.255555 -107.807681 161 15834ft 214kts
18-Nov-21 17:58 37.201193 -107.776853 161 15115ft 214kts
18-Nov-21 17:59 37.146522 -107.749657 192 14185ft 201kts
18-Nov-21 18:00 37.108141 -107.791676 229 13180ft 186kts
18-Nov-21 18:01 37.068199 -107.833300 219 12283ft 187kts
18-Nov-21 18:02 37.027029 -107.872548 218 11385ft 187kts
18-Nov-21 18:03 37.007205 -107.927558 259 10723ft 183kts
18-Nov-21 18:04 36.980312 -107.969363 165 10117ft 188kts
18-Nov-21 18:05 36.983754 -107.913083 39 9682ft 203kts
18-Nov-21 18:06 37.030232 -107.874648 32 9304ft 195kts
18-Nov-21 18:07 37.070682 -107.830862 34 8467ft 170kts
18-Nov-21 18:08 37.100716 -107.802234 31 7756ft 108kts
18-Nov-21 18:09 37.122897 -107.781061 33 7184ft 94kts
18-Nov-21 18:10 37.142556 -107.762317 33 6711ft 77kts
18-Nov-21 18:11 37.152236 -107.753868 315 6688ft 8kts
18-Nov-21 18:12 37.153548 -107.753959 300 6688ft 3kts
18-Nov-21 18:13 37.153601 -107.754058 306 6688ft 0kts
18-Nov-21 18:14 37.153601 -107.754058 306 6688ft 0kts
18-Nov-21 18:15 37.153601 -107.754058 306 6688ft 0kts

Navigation Log

Ident Type
Flight plan parsing failed, navigation log unavailable